createdAt,value
2019-03-21T00:01:08.180Z,7.67
2019-03-21T00:03:38.797Z,7.33
2019-03-21T00:06:13.157Z,9.30
2019-03-21T00:08:43.035Z,9.20
2019-03-21T00:11:49.562Z,9.47
2019-03-21T00:14:27.451Z,8.80
2019-03-21T00:16:58.092Z,8.27
2019-03-21T00:19:29.796Z,7.67
2019-03-21T00:22:00.405Z,8.67
2019-03-21T00:24:31.147Z,7.13
2019-03-21T00:27:01.825Z,9.27
2019-03-21T00:29:32.568Z,11.63
2019-03-21T00:32:03.137Z,7.93
2019-03-21T00:34:33.718Z,9.13
2019-03-21T00:37:05.316Z,8.43
2019-03-21T00:39:35.883Z,8.70
2019-03-21T00:42:06.525Z,7.83
2019-03-21T00:44:37.115Z,8.47
2019-03-21T00:47:08.063Z,9.57
2019-03-21T00:49:38.622Z,8.37
2019-03-21T00:52:09.245Z,8.50
2019-03-21T00:54:39.885Z,7.17
2019-03-21T00:57:10.443Z,9.77
2019-03-21T00:59:41.012Z,7.83
2019-03-21T01:02:11.616Z,7.93
2019-03-21T01:04:42.316Z,6.30
2019-03-21T01:07:12.885Z,7.20
2019-03-21T01:09:43.563Z,10.13
2019-03-21T01:12:14.269Z,9.10
2019-03-21T01:14:44.835Z,8.00
2019-03-21T01:17:17.272Z,8.33
2019-03-21T01:19:47.915Z,8.07
2019-03-21T01:22:18.492Z,11.33
2019-03-21T01:24:49.059Z,7.00
2019-03-21T01:27:19.842Z,7.60
2019-03-21T01:29:50.431Z,6.90
2019-03-21T01:32:21.096Z,8.17
2019-03-21T01:34:51.657Z,9.40
2019-03-21T01:37:22.361Z,8.30
2019-03-21T01:39:52.963Z,10.67
2019-03-21T01:42:24.574Z,7.10
2019-03-21T01:44:55.176Z,9.33
2019-03-21T01:47:25.753Z,8.27
2019-03-21T01:49:56.411Z,8.47
2019-03-21T01:52:27.031Z,8.10
2019-03-21T01:54:57.676Z,9.37
2019-03-21T01:57:28.243Z,9.00
2019-03-21T01:59:59.899Z,8.57
2019-03-21T02:02:30.538Z,7.40
2019-03-21T02:05:02.581Z,7.57
2019-03-21T02:07:33.129Z,7.30
2019-03-21T02:10:03.932Z,8.73
2019-03-21T02:12:34.547Z,8.00
2019-03-21T02:15:08.009Z,7.77
2019-03-21T02:17:38.607Z,5.70
2019-03-21T02:20:10.446Z,8.30
2019-03-21T02:22:41.047Z,11.23
2019-03-21T02:25:17.192Z,7.73
2019-03-21T02:27:47.731Z,10.70
2019-03-21T02:30:23.973Z,6.40
2019-03-21T02:32:58.251Z,8.93
2019-03-21T02:35:31.064Z,8.33
2019-03-21T02:38:01.712Z,5.93
2019-03-21T02:40:32.737Z,7.90
2019-03-21T02:43:03.478Z,7.97
2019-03-21T02:45:34.512Z,6.90
2019-03-21T02:48:05.061Z,7.50
2019-03-21T02:50:35.712Z,7.17
2019-03-21T02:53:06.805Z,8.80
2019-03-21T02:55:37.495Z,8.47
2019-03-21T02:58:08.054Z,9.90
2019-03-21T03:00:40.635Z,6.37
2019-03-21T03:03:12.259Z,10.47
2019-03-21T03:05:42.823Z,6.47
2019-03-21T03:08:13.375Z,8.13
2019-03-21T03:10:46.346Z,10.40
2019-03-21T03:13:16.901Z,7.07
2019-03-21T03:15:48.325Z,7.93
2019-03-21T03:18:18.912Z,9.63
2019-03-21T03:20:49.453Z,6.13
2019-03-21T03:23:20.001Z,8.43
2019-03-21T03:25:51.427Z,8.57
2019-03-21T03:28:23.704Z,9.60
2019-03-21T03:30:55.247Z,9.27
2019-03-21T03:33:25.948Z,9.10
2019-03-21T03:35:56.512Z,7.73
2019-03-21T03:38:27.085Z,9.37
2019-03-21T03:40:59.025Z,10.17
2019-03-21T03:43:29.689Z,7.80
2019-03-21T03:46:00.259Z,5.97
2019-03-21T03:48:30.944Z,6.70
2019-03-21T03:51:01.527Z,7.57
2019-03-21T03:53:32.060Z,7.73
2019-03-21T03:56:02.640Z,7.23
2019-03-21T03:58:33.255Z,9.87
2019-03-21T04:01:03.866Z,8.10
2019-03-21T04:03:34.433Z,11.73
2019-03-21T04:06:05.387Z,6.37
2019-03-21T04:08:35.939Z,7.70
2019-03-21T04:11:06.795Z,7.40
2019-03-21T04:13:37.390Z,11.77
2019-03-21T04:16:07.937Z,7.13
2019-03-21T04:18:38.572Z,6.93
2019-03-21T04:21:09.251Z,10.03
2019-03-21T04:23:39.834Z,8.23
2019-03-21T04:26:13.919Z,6.00
2019-03-21T04:28:44.568Z,7.50
2019-03-21T04:31:15.130Z,7.07
2019-03-21T04:33:46.708Z,6.57
2019-03-21T04:36:17.369Z,7.83
2019-03-21T04:38:48.051Z,7.77
2019-03-21T04:41:18.587Z,6.60
2019-03-21T04:43:49.147Z,8.23
2019-03-21T04:46:19.685Z,9.93
2019-03-21T04:48:50.237Z,7.93
2019-03-21T04:51:20.796Z,6.83
2019-03-21T04:53:53.363Z,9.67
2019-03-21T04:56:23.844Z,7.47
2019-03-21T04:58:54.522Z,10.30
2019-03-21T05:01:25.084Z,8.03
2019-03-21T05:03:55.747Z,7.77
2019-03-21T05:06:27.335Z,9.30
2019-03-21T05:08:57.959Z,6.60
2019-03-21T05:11:28.597Z,8.63
2019-03-21T05:13:59.227Z,7.80
2019-03-21T05:16:30.935Z,6.00
2019-03-21T05:19:01.540Z,8.87
2019-03-21T05:21:32.151Z,9.17
2019-03-21T05:24:04.255Z,8.77
2019-03-21T05:26:34.815Z,7.23
2019-03-21T05:29:05.385Z,6.93
2019-03-21T05:31:36.031Z,8.90
2019-03-21T05:34:06.618Z,5.77
2019-03-21T05:36:37.220Z,8.80
2019-03-21T05:39:09.375Z,8.87
2019-03-21T05:41:40.002Z,7.70
2019-03-21T05:44:30.920Z,7.77
2019-03-21T05:47:01.765Z,8.00
2019-03-21T05:49:32.331Z,7.77
2019-03-21T05:52:04.362Z,5.30
2019-03-21T05:54:34.939Z,7.57
2019-03-21T05:57:05.494Z,7.83
2019-03-21T05:59:36.056Z,6.27
2019-03-21T06:02:06.607Z,6.10
2019-03-21T06:04:37.315Z,8.30
2019-03-21T06:07:15.735Z,7.63
2019-03-21T06:09:46.387Z,6.63
2019-03-21T06:12:17.914Z,9.50
2019-03-21T06:14:52.363Z,12.47
2019-03-21T06:17:23.371Z,6.62
2019-03-21T06:20:28.348Z,7.70
2019-03-21T06:23:30.544Z,9.80
2019-03-21T06:26:45.275Z,8.17
2019-03-21T06:29:15.945Z,7.73
2019-03-21T06:31:46.501Z,7.27
2019-03-21T06:34:17.105Z,8.27
2019-03-21T06:36:47.720Z,13.33
2019-03-21T06:39:18.352Z,8.37
2019-03-21T06:41:49.059Z,6.70
2019-03-21T06:44:19.753Z,7.80
2019-03-21T06:46:50.331Z,7.87
2019-03-21T06:49:20.875Z,6.60
2019-03-21T06:51:51.415Z,9.40
2019-03-21T06:54:22.003Z,9.57
2019-03-21T06:56:52.623Z,8.50
2019-03-21T06:59:23.183Z,8.67
2019-03-21T07:01:53.821Z,7.37
2019-03-21T07:04:24.482Z,20.00
2019-03-21T07:06:55.067Z,47.73
2019-03-21T07:09:25.943Z,23.90
2019-03-21T07:11:56.581Z,16.83
2019-03-21T07:14:27.225Z,27.60
2019-03-21T07:17:00.597Z,19.23
2019-03-21T07:19:30.194Z,10.97
2019-03-21T07:22:00.871Z,10.87
2019-03-21T07:24:31.554Z,9.60
2019-03-21T07:27:02.213Z,10.47
2019-03-21T07:29:32.798Z,8.10
2019-03-21T07:32:03.502Z,10.97
2019-03-21T07:34:34.080Z,11.50
2019-03-21T07:37:04.737Z,8.10
2019-03-21T07:39:35.317Z,9.47
2019-03-21T07:42:05.909Z,10.83
2019-03-21T07:44:36.463Z,11.40
2019-03-21T07:47:12.609Z,17.90
2019-03-21T07:49:39.399Z,8.57
2019-03-21T07:52:10.237Z,6.63
2019-03-21T07:54:40.784Z,5.80
2019-03-21T07:57:11.407Z,7.00
2019-03-21T07:59:42.039Z,8.47
2019-03-21T08:02:12.667Z,8.60
2019-03-21T08:04:43.300Z,8.37
2019-03-21T08:07:13.893Z,6.87
2019-03-21T08:09:44.466Z,8.20
2019-03-21T08:12:16.116Z,7.23
2019-03-21T08:14:46.748Z,7.50
2019-03-21T08:17:17.545Z,7.40
2019-03-21T08:19:48.106Z,8.70
2019-03-21T08:22:18.652Z,6.80
2019-03-21T08:24:49.210Z,7.90
2019-03-21T08:27:19.847Z,5.97
2019-03-21T08:29:50.528Z,8.60
2019-03-21T08:32:21.088Z,6.73
2019-03-21T08:34:51.796Z,7.97
2019-03-21T08:37:22.350Z,6.03
2019-03-21T08:39:53.643Z,8.35
2019-03-21T08:42:24.985Z,7.10
2019-03-21T08:44:56.164Z,7.40
2019-03-21T08:47:27.306Z,9.03
2019-03-21T08:49:57.860Z,7.57
2019-03-21T08:52:28.993Z,9.63
2019-03-21T08:54:59.559Z,6.00
2019-03-21T08:57:30.667Z,7.62
2019-03-21T09:00:01.803Z,5.60
2019-03-21T09:02:33.182Z,7.62
2019-03-21T09:05:04.359Z,6.75
2019-03-21T09:07:35.482Z,7.70
2019-03-21T09:10:08.074Z,5.83
2019-03-21T09:12:38.785Z,4.60
2019-03-21T09:15:11.356Z,7.40
2019-03-21T09:17:42.472Z,6.10
2019-03-21T09:20:13.609Z,7.50
2019-03-21T09:22:44.729Z,4.90
2019-03-21T09:25:16.059Z,4.72
2019-03-21T09:27:47.221Z,5.22
2019-03-21T09:30:18.405Z,4.50
2019-03-21T09:32:49.537Z,5.08
2019-03-21T09:35:20.861Z,5.58
2019-03-21T09:37:52.088Z,6.42
2019-03-21T09:40:23.235Z,5.30
2019-03-21T09:42:54.351Z,7.62
2019-03-21T09:45:25.613Z,5.95
2019-03-21T09:47:56.835Z,6.30
2019-03-21T09:50:29.045Z,6.12
2019-03-21T09:53:00.247Z,6.83
2019-03-21T09:55:31.399Z,8.30
2019-03-21T09:58:02.615Z,7.28
2019-03-21T10:00:34.973Z,7.03
2019-03-21T10:03:06.539Z,7.25
2019-03-21T10:05:37.707Z,7.65
2019-03-21T10:08:08.828Z,8.80
2019-03-21T10:10:40.023Z,9.25
2019-03-21T10:13:11.197Z,13.03
2019-03-21T10:15:42.372Z,8.28
2019-03-21T10:18:13.503Z,10.10
2019-03-21T10:20:44.686Z,9.28
2019-03-21T10:23:16.887Z,9.60
2019-03-21T10:25:48.118Z,8.13
2019-03-21T10:28:19.251Z,8.50
2019-03-21T10:30:50.384Z,7.97
2019-03-21T10:33:21.844Z,9.30
2019-03-21T10:35:53.113Z,11.60
2019-03-21T10:38:24.271Z,11.22
2019-03-21T10:40:55.431Z,11.50
2019-03-21T10:43:26.562Z,12.20
2019-03-21T10:45:58.923Z,9.03
2019-03-21T10:48:30.096Z,13.95
2019-03-21T10:51:01.303Z,7.80
2019-03-21T10:53:33.403Z,7.33
2019-03-21T10:56:04.734Z,10.03
2019-03-21T10:58:35.871Z,7.95
2019-03-21T11:01:07.035Z,8.80
2019-03-21T11:03:38.248Z,8.65
2019-03-21T11:06:09.513Z,10.60
2019-03-21T11:08:40.676Z,8.68
2019-03-21T11:11:12.752Z,9.73
2019-03-21T11:13:43.867Z,7.90
2019-03-21T11:16:15.014Z,9.03
2019-03-21T11:18:46.132Z,11.50
2019-03-21T11:21:17.324Z,18.25
2019-03-21T11:23:48.511Z,8.63
2019-03-21T11:26:19.731Z,24.15
2019-03-21T11:28:50.896Z,18.27
2019-03-21T11:31:22.143Z,14.73
2019-03-21T11:33:53.408Z,9.40
2019-03-21T11:36:24.571Z,9.55
2019-03-21T11:38:55.759Z,14.47
2019-03-21T11:41:27.090Z,10.55
2019-03-21T11:43:58.242Z,17.80
2019-03-21T11:46:29.488Z,14.40
2019-03-21T11:49:00.732Z,13.28
2019-03-21T11:51:31.965Z,9.45
2019-03-21T11:54:06.604Z,9.65
2019-03-21T11:56:37.771Z,12.95
2019-03-21T11:59:08.876Z,12.75
2019-03-21T12:01:40.011Z,15.03
2019-03-21T12:04:11.131Z,19.95
2019-03-21T12:06:42.353Z,9.83
2019-03-21T12:09:13.611Z,11.80
2019-03-21T12:11:44.863Z,9.20
2019-03-21T12:14:16.040Z,9.90
2019-03-21T12:16:47.301Z,10.45
2019-03-21T12:19:18.427Z,23.47
2019-03-21T12:21:49.640Z,14.10
2019-03-21T12:24:20.823Z,11.30
2019-03-21T12:26:53.376Z,11.00
2019-03-21T12:29:24.491Z,12.78
2019-03-21T12:31:55.746Z,16.70
2019-03-21T12:34:26.967Z,10.10
2019-03-21T12:36:58.173Z,14.60
2019-03-21T12:39:41.427Z,8.45
2019-03-21T12:42:12.563Z,10.93
2019-03-21T12:44:43.759Z,41.55
2019-03-21T12:47:14.999Z,26.05
2019-03-21T12:49:46.129Z,16.97
2019-03-21T12:52:17.309Z,25.80
2019-03-21T12:54:48.485Z,14.07
2019-03-21T12:57:19.640Z,17.23
2019-03-21T12:59:50.811Z,11.93
2019-03-21T13:02:31.975Z,10.38
2019-03-21T13:04:54.779Z,14.03
2019-03-21T13:07:25.927Z,8.98
2019-03-21T13:09:57.227Z,16.90
2019-03-21T13:12:28.380Z,11.38
2019-03-21T13:14:59.505Z,6.78
2019-03-21T13:17:30.800Z,8.45
2019-03-21T13:20:01.939Z,10.78
2019-03-21T13:22:33.140Z,11.33
2019-03-21T13:25:04.441Z,11.35
2019-03-21T13:27:35.628Z,12.90
2019-03-21T13:30:06.991Z,9.60
2019-03-21T13:32:38.120Z,7.92
2019-03-21T13:35:09.268Z,10.43
2019-03-21T13:37:40.464Z,11.63
2019-03-21T13:40:11.668Z,10.43
2019-03-21T13:42:43.961Z,9.03
2019-03-21T13:45:15.153Z,9.03
2019-03-21T13:47:46.323Z,10.55
2019-03-21T13:50:17.449Z,15.18
2019-03-21T13:52:48.651Z,9.35
2019-03-21T13:55:19.787Z,12.35
2019-03-21T13:57:50.960Z,7.20
2019-03-21T14:00:22.586Z,25.02
2019-03-21T14:02:54.376Z,18.40
2019-03-21T14:05:25.659Z,29.55
2019-03-21T14:07:56.794Z,11.48
2019-03-21T14:10:27.932Z,11.28
2019-03-21T14:12:59.315Z,10.55
2019-03-21T14:15:32.329Z,12.25
2019-03-21T14:18:03.482Z,34.13
2019-03-21T14:20:34.651Z,128.62
2019-03-21T14:23:16.461Z,56.45
2019-03-21T14:25:38.760Z,39.35
2019-03-21T14:28:10.040Z,13.50
2019-03-21T14:30:41.269Z,14.75
2019-03-21T14:33:12.472Z,13.28
2019-03-21T14:35:43.660Z,15.78
2019-03-21T14:38:25.808Z,9.80
2019-03-21T14:40:47.675Z,31.77
2019-03-21T14:43:18.823Z,36.65
2019-03-21T14:45:49.963Z,20.20
2019-03-21T14:48:21.204Z,13.45
2019-03-21T14:50:52.368Z,10.80
2019-03-21T14:53:28.759Z,10.45
2019-03-21T14:55:57.345Z,26.70
2019-03-21T14:58:28.465Z,11.88
2019-03-21T15:00:59.720Z,9.78
2019-03-21T15:03:30.923Z,8.45
2019-03-21T15:06:02.217Z,10.65
2019-03-21T15:08:33.400Z,15.15
2019-03-21T15:11:16.330Z,21.60
2019-03-21T15:13:37.682Z,15.68
2019-03-21T15:16:08.931Z,23.22
2019-03-21T15:18:40.131Z,17.32
2019-03-21T15:21:11.261Z,10.05
2019-03-21T15:23:42.387Z,30.17
2019-03-21T15:26:13.667Z,22.65
2019-03-21T15:28:45.896Z,13.05
2019-03-21T15:31:17.099Z,15.60
2019-03-21T15:33:48.315Z,18.80
2019-03-21T15:36:19.536Z,11.22
2019-03-21T15:38:50.728Z,7.70
2019-03-21T15:41:21.871Z,10.65
2019-03-21T15:43:52.983Z,9.63
2019-03-21T15:46:24.167Z,19.70
2019-03-21T15:48:55.414Z,15.83
2019-03-21T15:51:26.613Z,26.42
2019-03-21T15:53:57.772Z,22.67
2019-03-21T15:56:28.948Z,11.40
2019-03-21T15:59:00.057Z,11.48
2019-03-21T16:01:31.196Z,8.98
2019-03-21T16:04:02.385Z,11.08
2019-03-21T16:06:33.611Z,8.38
2019-03-21T16:09:09.026Z,21.30
2019-03-21T16:11:39.899Z,17.07
2019-03-21T16:14:11.011Z,12.80
2019-03-21T16:16:42.182Z,8.65
2019-03-21T16:19:13.320Z,11.15
2019-03-21T16:21:44.530Z,12.07
2019-03-21T16:24:15.721Z,11.88
2019-03-21T16:26:46.869Z,9.93
2019-03-21T16:29:18.083Z,8.93
2019-03-21T16:31:49.268Z,9.08
2019-03-21T16:34:20.484Z,10.75
2019-03-21T16:36:51.687Z,7.97
2019-03-21T16:39:22.860Z,11.15
2019-03-21T16:41:54.001Z,10.35
2019-03-21T16:44:25.124Z,9.15
2019-03-21T16:46:56.277Z,10.60
2019-03-21T16:49:28.692Z,7.50
2019-03-21T16:52:00.860Z,11.18
2019-03-21T16:54:32.086Z,10.75
2019-03-21T16:57:03.216Z,8.78
2019-03-21T16:59:51.970Z,8.38
2019-03-21T17:02:13.614Z,9.60
2019-03-21T17:04:44.829Z,9.68
2019-03-21T17:07:16.003Z,10.13
2019-03-21T17:09:47.197Z,8.55
2019-03-21T17:12:18.342Z,10.75
2019-03-21T17:14:49.532Z,8.28
2019-03-21T17:17:20.697Z,7.67
2019-03-21T17:19:51.816Z,8.35
2019-03-21T17:22:23.006Z,8.55
2019-03-21T17:24:54.252Z,14.90
2019-03-21T17:27:25.513Z,14.80
2019-03-21T17:29:57.868Z,9.13
2019-03-21T17:32:29.141Z,15.90
2019-03-21T17:35:00.368Z,9.03
2019-03-21T17:37:31.936Z,10.43
2019-03-21T17:40:03.276Z,13.70
2019-03-21T17:42:34.579Z,12.65
2019-03-21T17:45:06.883Z,10.18
2019-03-21T17:47:38.302Z,15.50
2019-03-21T17:50:10.132Z,13.05
2019-03-21T17:52:41.410Z,14.07
2019-03-21T17:55:13.666Z,17.70
2019-03-21T17:57:44.870Z,15.75
2019-03-21T18:00:18.032Z,12.82
2019-03-21T18:02:52.594Z,13.35
2019-03-21T18:05:23.805Z,26.12
2019-03-21T18:07:55.463Z,17.50
2019-03-21T18:10:28.376Z,54.63
2019-03-21T18:12:59.661Z,34.15
2019-03-21T18:15:30.870Z,24.20
2019-03-21T18:18:02.040Z,16.52
2019-03-21T18:20:33.302Z,15.93
2019-03-21T18:23:04.506Z,13.28
2019-03-21T18:25:35.751Z,11.43
2019-03-21T18:28:08.666Z,12.60
2019-03-21T18:30:40.098Z,15.05
2019-03-21T18:33:12.810Z,15.08
2019-03-21T18:35:44.376Z,16.10
2019-03-21T18:38:16.009Z,14.33
2019-03-21T18:40:47.239Z,16.77
2019-03-21T18:43:18.411Z,25.70
2019-03-21T18:45:49.554Z,14.63
2019-03-21T18:48:20.687Z,14.58
2019-03-21T18:50:51.830Z,12.60
2019-03-21T18:53:23.263Z,13.55
2019-03-21T18:55:54.453Z,13.65
2019-03-21T18:58:25.725Z,13.08
2019-03-21T19:00:56.955Z,14.58
2019-03-21T19:03:28.172Z,18.35
2019-03-21T19:05:59.447Z,19.50
2019-03-21T19:08:30.716Z,17.15
2019-03-21T19:11:01.911Z,20.37
2019-03-21T19:13:33.055Z,18.82
2019-03-21T19:16:04.215Z,19.98
2019-03-21T19:18:35.435Z,21.60
2019-03-21T19:21:06.784Z,25.40
2019-03-21T19:23:38.969Z,23.73
2019-03-21T19:26:10.359Z,22.20
2019-03-21T19:28:41.547Z,19.80
2019-03-21T19:31:14.272Z,24.63
2019-03-21T19:33:45.399Z,22.35
2019-03-21T19:36:16.795Z,20.05
2019-03-21T19:38:47.971Z,22.25
2019-03-21T19:41:19.166Z,18.57
2019-03-21T19:43:50.316Z,30.15
2019-03-21T19:46:21.456Z,27.73
2019-03-21T19:48:52.811Z,21.80
2019-03-21T19:51:24.003Z,17.98
2019-03-21T19:53:55.259Z,25.75
2019-03-21T19:56:26.528Z,21.05
2019-03-21T19:59:01.261Z,22.70
2019-03-21T20:01:34.119Z,19.93
2019-03-21T20:04:05.805Z,19.37
2019-03-21T20:06:37.578Z,20.25
2019-03-21T20:09:09.284Z,22.45
2019-03-21T20:11:40.961Z,23.55
2019-03-21T20:14:12.272Z,25.30
2019-03-21T20:16:43.433Z,31.35
2019-03-21T20:19:14.075Z,20.90
2019-03-21T20:21:48.002Z,16.97
2019-03-21T20:24:18.168Z,14.93
2019-03-21T20:26:50.708Z,18.45
2019-03-21T20:29:21.899Z,17.82
2019-03-21T20:31:52.484Z,16.20
2019-03-21T20:34:23.193Z,17.23
2019-03-21T20:36:53.799Z,16.47
2019-03-21T20:39:24.959Z,16.27
2019-03-21T20:41:55.540Z,13.90
2019-03-21T20:44:26.199Z,12.87
2019-03-21T20:46:56.863Z,12.87
2019-03-21T20:49:27.463Z,16.63
2019-03-21T20:51:58.121Z,17.30
2019-03-21T20:54:28.777Z,21.67
2019-03-21T20:56:59.899Z,15.88
2019-03-21T20:59:31.109Z,15.03
2019-03-21T21:02:03.207Z,14.07
2019-03-21T21:04:34.019Z,15.10
2019-03-21T21:07:05.183Z,16.15
2019-03-21T21:09:36.343Z,14.33
2019-03-21T21:12:07.554Z,11.40
2019-03-21T21:14:38.195Z,12.63
2019-03-21T21:17:08.899Z,13.97
2019-03-21T21:19:41.691Z,15.00
2019-03-21T21:22:12.332Z,12.93
2019-03-21T21:24:42.895Z,13.13
2019-03-21T21:27:13.551Z,13.30
2019-03-21T21:29:44.328Z,13.40
2019-03-21T21:32:17.689Z,11.50
2019-03-21T21:34:48.858Z,12.93
2019-03-21T21:37:20.014Z,12.85
2019-03-21T21:39:51.237Z,12.18
2019-03-21T21:42:21.879Z,14.50
2019-03-21T21:44:52.583Z,11.50
2019-03-21T21:47:23.356Z,12.63
2019-03-21T21:49:54.099Z,11.47
2019-03-21T21:52:24.707Z,13.23
2019-03-21T21:54:55.447Z,12.43
2019-03-21T21:57:26.169Z,11.90
2019-03-21T21:59:56.817Z,11.53
2019-03-21T22:02:27.571Z,14.30
2019-03-21T22:05:00.306Z,15.03
2019-03-21T22:07:30.567Z,11.30
2019-03-21T22:10:01.237Z,10.60
2019-03-21T22:12:31.753Z,12.90
2019-03-21T22:15:02.374Z,15.10
2019-03-21T22:17:33.156Z,14.50
2019-03-21T22:20:03.789Z,10.87
2019-03-21T22:22:34.439Z,10.57
2019-03-21T22:25:06.178Z,7.23
2019-03-21T22:27:36.743Z,8.33
2019-03-21T22:30:10.210Z,10.23
2019-03-21T22:32:40.843Z,12.70
2019-03-21T22:35:11.512Z,14.07
2019-03-21T22:37:42.179Z,13.87
2019-03-21T22:40:15.978Z,7.83
2019-03-21T22:42:46.575Z,10.70
2019-03-21T22:45:17.708Z,11.33
2019-03-21T22:47:50.575Z,11.07
2019-03-21T22:50:20.900Z,13.93
2019-03-21T22:52:51.456Z,11.53
2019-03-21T22:55:22.143Z,11.33
2019-03-21T22:57:52.772Z,8.83
2019-03-21T23:00:29.039Z,9.07
2019-03-21T23:03:01.256Z,8.17
2019-03-21T23:05:32.019Z,11.43
2019-03-21T23:08:02.671Z,8.53
2019-03-21T23:10:33.443Z,8.57
2019-03-21T23:13:03.986Z,7.93
2019-03-21T23:15:34.614Z,7.50
2019-03-21T23:18:05.291Z,9.03
2019-03-21T23:20:36.156Z,6.53
2019-03-21T23:23:06.711Z,8.03
2019-03-21T23:25:37.279Z,6.10
2019-03-21T23:28:07.936Z,7.17
2019-03-21T23:30:38.675Z,8.27
2019-03-21T23:33:09.215Z,8.17
2019-03-21T23:35:39.856Z,8.10
2019-03-21T23:38:10.526Z,7.47
2019-03-21T23:40:41.190Z,6.10
2019-03-21T23:43:11.767Z,6.80
2019-03-21T23:45:42.325Z,7.00
2019-03-21T23:48:12.866Z,8.83
2019-03-21T23:50:44.483Z,6.37
2019-03-21T23:53:15.171Z,6.10
2019-03-21T23:55:45.762Z,7.93
2019-03-21T23:58:16.379Z,7.73
